createdAt,value
2022-09-16T00:00:59.357Z,14.30
2022-09-16T00:03:27.137Z,14.40
2022-09-16T00:05:54.517Z,14.40
2022-09-16T00:08:23.512Z,14.40
2022-09-16T00:10:52.242Z,14.40
2022-09-16T00:13:19.681Z,14.40
2022-09-16T00:15:51.150Z,14.40
2022-09-16T00:18:20.565Z,14.40
2022-09-16T00:20:51.455Z,14.40
2022-09-16T00:23:20.301Z,14.30
2022-09-16T00:25:52.898Z,14.30
2022-09-16T00:28:21.948Z,14.30
2022-09-16T00:30:49.923Z,14.30
2022-09-16T00:33:19.383Z,14.30
2022-09-16T00:35:49.797Z,14.30
2022-09-16T00:38:17.299Z,14.30
2022-09-16T00:40:46.376Z,14.30
2022-09-16T00:43:16.118Z,14.40
2022-09-16T00:45:47.766Z,14.40
2022-09-16T00:48:21.244Z,14.30
2022-09-16T00:50:58.037Z,14.30
2022-09-16T00:53:33.341Z,14.30
2022-09-16T00:56:03.117Z,14.30
2022-09-16T00:58:44.426Z,14.30
2022-09-16T01:01:13.908Z,14.30
2022-09-16T01:04:05.232Z,14.20
2022-09-16T01:06:38.495Z,14.40
2022-09-16T01:09:07.615Z,14.20
2022-09-16T01:11:35.177Z,14.20
2022-09-16T01:14:23.818Z,14.20
2022-09-16T01:17:23.249Z,14.10
2022-09-16T01:20:17.818Z,14.10
2022-09-16T01:22:46.189Z,14.20
2022-09-16T01:25:43.437Z,14.10
2022-09-16T01:28:41.374Z,14.10
2022-09-16T01:31:31.409Z,14.10
2022-09-16T01:34:45.157Z,14.10
2022-09-16T01:37:20.417Z,14.00
2022-09-16T01:39:54.329Z,14.00
2022-09-16T01:42:58.127Z,14.00
2022-09-16T01:45:39.099Z,13.90
2022-09-16T01:48:07.459Z,13.80
2022-09-16T01:50:43.760Z,13.90
2022-09-16T01:53:51.082Z,13.80
2022-09-16T01:56:45.310Z,13.80
2022-09-16T01:59:31.915Z,13.80
2022-09-16T02:02:21.239Z,13.80
2022-09-16T02:04:56.990Z,13.80
2022-09-16T02:07:31.156Z,13.80
2022-09-16T02:10:06.795Z,13.80
2022-09-16T02:12:37.296Z,13.80
2022-09-16T02:15:11.709Z,13.90
2022-09-16T02:17:44.797Z,13.90
2022-09-16T02:20:20.919Z,13.90
2022-09-16T02:22:55.770Z,14.00
2022-09-16T02:25:24.434Z,14.00
2022-09-16T02:27:54.150Z,14.10
2022-09-16T02:30:23.166Z,14.00
2022-09-16T02:33:06.487Z,14.20
2022-09-16T02:35:37.215Z,14.20
2022-09-16T02:38:18.006Z,14.10
2022-09-16T02:40:52.342Z,14.20
2022-09-16T02:43:20.482Z,14.10
2022-09-16T02:46:11.233Z,14.20
2022-09-16T02:48:57.627Z,14.10
2022-09-16T02:51:41.163Z,14.20
2022-09-16T02:54:18.529Z,14.20
2022-09-16T02:56:46.763Z,14.20
2022-09-16T02:59:15.860Z,14.10
2022-09-16T03:01:49.160Z,14.20
2022-09-16T03:04:20.117Z,14.20
2022-09-16T03:06:48.811Z,14.10
2022-09-16T03:09:24.064Z,14.10
2022-09-16T03:12:05.229Z,14.10
2022-09-16T03:14:43.140Z,14.20
2022-09-16T03:17:38.906Z,14.10
2022-09-16T03:20:20.823Z,14.10
2022-09-16T03:22:57.134Z,14.10
2022-09-16T03:26:09.756Z,14.00
2022-09-16T03:28:47.168Z,14.00
2022-09-16T03:31:33.283Z,14.00
2022-09-16T03:34:06.706Z,14.00
2022-09-16T03:36:41.821Z,13.90
2022-09-16T03:39:17.688Z,13.90
2022-09-16T03:41:46.076Z,14.00
2022-09-16T03:44:13.727Z,13.90
2022-09-16T03:46:44.103Z,13.90
2022-09-16T03:49:13.251Z,13.90
2022-09-16T03:51:43.188Z,14.00
2022-09-16T03:54:11.453Z,13.90
2022-09-16T03:56:43.441Z,14.00
2022-09-16T03:59:10.821Z,13.90
2022-09-16T04:01:38.316Z,14.00
2022-09-16T04:04:06.317Z,14.00
2022-09-16T04:06:35.755Z,13.90
2022-09-16T04:09:06.413Z,13.90
2022-09-16T04:11:35.707Z,14.00
2022-09-16T04:14:05.587Z,14.00
2022-09-16T04:16:36.436Z,14.00
2022-09-16T04:19:05.341Z,13.90
2022-09-16T04:21:34.808Z,14.00
2022-09-16T04:24:03.587Z,14.00
2022-09-16T04:26:33.532Z,14.00
2022-09-16T04:29:01.134Z,13.90
2022-09-16T04:31:28.953Z,13.80
2022-09-16T04:33:57.794Z,13.70
2022-09-16T04:36:26.132Z,13.80
2022-09-16T04:39:09.332Z,13.80
2022-09-16T04:41:38.989Z,13.80
2022-09-16T04:44:07.444Z,13.80
2022-09-16T04:46:35.209Z,13.70
2022-09-16T04:49:03.663Z,13.80
2022-09-16T04:51:32.275Z,13.80
2022-09-16T04:54:02.723Z,13.90
2022-09-16T04:56:34.809Z,13.90
2022-09-16T04:59:04.747Z,13.90
2022-09-16T05:01:38.755Z,13.90
2022-09-16T05:04:07.894Z,13.90
2022-09-16T05:06:37.986Z,13.90
2022-09-16T05:09:06.453Z,13.90
2022-09-16T05:11:37.282Z,13.90
2022-09-16T05:14:11.000Z,13.90
2022-09-16T05:16:38.564Z,13.90
2022-09-16T05:19:06.264Z,13.80
2022-09-16T05:21:37.014Z,13.90
2022-09-16T05:24:10.646Z,13.90
2022-09-16T05:26:43.568Z,13.80
2022-09-16T05:29:16.640Z,14.20
2022-09-16T05:31:47.930Z,13.90
2022-09-16T05:34:22.325Z,14.00
2022-09-16T05:36:53.809Z,13.80
2022-09-16T05:39:31.515Z,13.70
2022-09-16T05:42:00.418Z,13.80
2022-09-16T05:44:30.453Z,13.80
2022-09-16T05:46:58.392Z,13.80
2022-09-16T05:49:25.816Z,14.00
2022-09-16T05:51:53.873Z,13.90
2022-09-16T05:54:25.640Z,13.80
2022-09-16T05:56:53.913Z,14.00
2022-09-16T05:59:24.723Z,14.10
2022-09-16T06:01:54.283Z,14.10
2022-09-16T06:04:23.305Z,14.20
2022-09-16T06:06:50.710Z,14.30
2022-09-16T06:09:21.888Z,14.40
2022-09-16T06:11:51.174Z,14.50
2022-09-16T06:14:19.524Z,14.70
2022-09-16T06:16:47.110Z,14.70
2022-09-16T06:19:18.192Z,14.80
2022-09-16T06:21:47.006Z,15.00
2022-09-16T06:24:17.027Z,14.80
2022-09-16T06:26:46.919Z,15.00
2022-09-16T06:29:17.275Z,14.70
2022-09-16T06:31:45.108Z,14.80
2022-09-16T06:34:19.336Z,14.80
2022-09-16T06:36:46.960Z,14.80
2022-09-16T06:39:16.507Z,14.80
2022-09-16T06:41:44.715Z,15.00
2022-09-16T06:44:12.332Z,14.90
2022-09-16T06:46:41.094Z,14.90
2022-09-16T06:49:11.361Z,14.90
2022-09-16T06:51:39.041Z,14.90
2022-09-16T06:54:09.065Z,14.90
2022-09-16T06:56:39.155Z,15.00
2022-09-16T06:59:07.430Z,15.00
2022-09-16T07:01:35.749Z,15.00
2022-09-16T07:04:06.848Z,15.00
2022-09-16T07:09:24.084Z,15.10
2022-09-16T07:11:51.357Z,15.10
2022-09-16T07:14:18.616Z,15.20
2022-09-16T07:16:46.144Z,15.10
2022-09-16T07:19:13.704Z,15.10
2022-09-16T07:21:41.776Z,15.10
2022-09-16T07:24:11.452Z,15.20
2022-09-16T07:26:40.537Z,15.20
2022-09-16T07:29:11.586Z,15.30
2022-09-16T07:31:38.810Z,15.20
2022-09-16T07:34:09.412Z,15.30
2022-09-16T07:36:43.101Z,15.20
2022-09-16T07:39:12.725Z,15.20
2022-09-16T07:41:42.672Z,15.30
2022-09-16T07:44:15.248Z,15.30
2022-09-16T07:46:42.600Z,15.40
2022-09-16T07:49:13.480Z,15.40
2022-09-16T07:51:41.815Z,15.40
2022-09-16T07:54:12.113Z,15.50
2022-09-16T07:56:42.675Z,15.40
2022-09-16T07:59:19.642Z,15.50
2022-09-16T08:01:50.303Z,15.50
2022-09-16T08:04:19.374Z,15.50
2022-09-16T08:06:49.635Z,15.50
2022-09-16T08:12:05.476Z,15.70
2022-09-16T08:14:33.471Z,15.80
2022-09-16T08:17:02.587Z,15.90
2022-09-16T08:19:30.140Z,16.00
2022-09-16T08:21:58.739Z,16.00
2022-09-16T08:24:27.240Z,16.10
2022-09-16T08:29:26.417Z,16.20
2022-09-16T08:31:53.776Z,16.20
2022-09-16T08:34:21.807Z,16.10
2022-09-16T08:36:49.227Z,16.20
2022-09-16T08:39:16.820Z,16.20
2022-09-16T08:42:15.492Z,16.30
2022-09-16T08:45:00.991Z,16.30
2022-09-16T08:47:54.383Z,16.40
2022-09-16T08:50:26.988Z,16.50
2022-09-16T08:53:00.991Z,16.50
2022-09-16T08:55:37.013Z,16.50
2022-09-16T08:58:15.720Z,16.50
2022-09-16T09:00:46.946Z,16.50
2022-09-16T09:03:25.182Z,16.50
2022-09-16T09:05:55.704Z,16.60
2022-09-16T09:08:35.861Z,16.70
2022-09-16T09:11:21.424Z,16.80
2022-09-16T09:14:07.313Z,16.80
2022-09-16T09:16:58.421Z,16.80
2022-09-16T09:19:38.655Z,16.80
2022-09-16T09:22:24.324Z,16.80
2022-09-16T09:25:06.868Z,16.70
2022-09-16T09:27:54.660Z,16.60
2022-09-16T09:30:25.328Z,16.50
2022-09-16T09:33:04.790Z,16.40
2022-09-16T09:35:50.719Z,16.50
2022-09-16T09:38:47.073Z,16.40
2022-09-16T09:41:33.059Z,16.40
2022-09-16T09:44:28.446Z,16.30
2022-09-16T09:47:04.425Z,16.30
2022-09-16T09:49:46.695Z,16.30
2022-09-16T09:52:28.264Z,16.40
2022-09-16T09:55:00.828Z,16.30
2022-09-16T09:57:43.319Z,16.40
2022-09-16T10:00:18.680Z,16.30
2022-09-16T10:02:49.770Z,16.10
2022-09-16T10:05:23.502Z,16.10
2022-09-16T10:08:05.590Z,16.10
2022-09-16T10:10:34.964Z,16.00
2022-09-16T10:13:10.598Z,16.00
2022-09-16T10:15:38.322Z,16.10
2022-09-16T10:18:15.761Z,16.00
2022-09-16T10:20:54.633Z,16.10
2022-09-16T10:23:29.771Z,16.00
2022-09-16T10:26:22.279Z,16.00
2022-09-16T10:28:55.391Z,16.10
2022-09-16T10:31:29.139Z,16.10
2022-09-16T10:34:01.526Z,16.10
2022-09-16T10:36:36.004Z,16.00
2022-09-16T10:39:07.437Z,15.90
2022-09-16T10:41:42.716Z,15.90
2022-09-16T10:44:29.483Z,15.80
2022-09-16T10:47:09.459Z,15.80
2022-09-16T10:49:53.198Z,15.70
2022-09-16T10:52:40.413Z,15.70
2022-09-16T10:55:30.133Z,15.70
2022-09-16T10:58:11.107Z,15.70
2022-09-16T11:00:53.744Z,15.50
2022-09-16T11:03:40.468Z,15.60
2022-09-16T11:06:27.219Z,15.60
2022-09-16T11:09:21.900Z,15.70
2022-09-16T11:12:05.391Z,15.80
2022-09-16T11:14:52.610Z,15.80
2022-09-16T11:17:49.515Z,15.80
2022-09-16T11:20:42.002Z,15.80
2022-09-16T11:23:45.092Z,15.60
2022-09-16T11:26:19.286Z,15.10
2022-09-16T11:28:54.437Z,14.80
2022-09-16T11:31:38.310Z,14.50
2022-09-16T11:34:49.146Z,14.30
2022-09-16T11:37:23.633Z,14.10
2022-09-16T11:40:12.487Z,13.80
2022-09-16T11:43:09.697Z,13.60
2022-09-16T11:45:57.443Z,13.30
2022-09-16T11:48:27.829Z,13.30
2022-09-16T11:51:15.078Z,13.00
2022-09-16T11:53:58.043Z,12.80
2022-09-16T11:56:46.660Z,12.70
2022-09-16T11:59:34.156Z,12.40
2022-09-16T12:02:12.975Z,12.40
2022-09-16T12:04:58.704Z,12.30
2022-09-16T12:07:36.237Z,12.10
2022-09-16T12:10:16.437Z,12.00
2022-09-16T12:12:54.180Z,12.00
2022-09-16T12:15:27.030Z,11.90
2022-09-16T12:17:59.559Z,11.90
2022-09-16T12:23:28.993Z,12.00
2022-09-16T12:26:18.138Z,12.30
2022-09-16T12:28:59.384Z,12.30
2022-09-16T12:31:33.758Z,12.30
2022-09-16T12:34:09.850Z,12.20
2022-09-16T12:36:40.535Z,12.10
2022-09-16T12:39:12.276Z,12.20
2022-09-16T12:42:22.750Z,12.30
2022-09-16T12:45:15.461Z,12.20
2022-09-16T12:48:07.670Z,12.20
2022-09-16T12:50:46.502Z,12.20
2022-09-16T12:53:51.100Z,12.00
2022-09-16T12:56:30.192Z,12.10
2022-09-16T12:59:32.777Z,12.10
2022-09-16T13:02:06.370Z,12.20
2022-09-16T13:04:40.208Z,12.30
2022-09-16T13:07:07.724Z,12.40
2022-09-16T13:09:39.705Z,12.30
2022-09-16T13:12:39.267Z,12.10
2022-09-16T13:15:20.609Z,12.10
2022-09-16T13:17:52.695Z,12.10
2022-09-16T13:20:37.892Z,12.00
2022-09-16T13:23:17.822Z,12.00
2022-09-16T13:26:01.089Z,12.00
2022-09-16T13:28:37.440Z,12.10
2022-09-16T13:31:17.808Z,12.20
2022-09-16T13:33:46.758Z,12.20
2022-09-16T13:36:20.056Z,12.20
2022-09-16T13:38:50.107Z,12.30
2022-09-16T13:41:42.895Z,12.30
2022-09-16T13:44:39.041Z,12.30
2022-09-16T13:47:09.230Z,12.40
2022-09-16T13:49:50.960Z,12.50
2022-09-16T13:52:36.630Z,12.70
2022-09-16T13:55:10.482Z,12.90
2022-09-16T13:58:00.397Z,12.90
2022-09-16T14:00:50.097Z,12.80
2022-09-16T14:03:54.137Z,12.80
2022-09-16T14:06:53.527Z,12.80
2022-09-16T14:09:42.814Z,12.90
2022-09-16T14:12:44.377Z,12.80
2022-09-16T14:15:12.440Z,12.60
2022-09-16T14:17:46.512Z,12.60
2022-09-16T14:20:21.116Z,12.60
2022-09-16T14:22:48.519Z,12.50
2022-09-16T14:25:49.386Z,12.40
2022-09-16T14:28:24.225Z,12.50
2022-09-16T14:30:55.661Z,12.50
2022-09-16T14:33:56.338Z,12.50
2022-09-16T14:36:27.684Z,12.50
2022-09-16T14:39:02.351Z,12.60
2022-09-16T14:41:39.105Z,12.60
2022-09-16T14:44:18.274Z,12.70
2022-09-16T14:46:49.341Z,12.70
2022-09-16T14:49:18.412Z,12.70
2022-09-16T14:52:12.361Z,12.80
2022-09-16T14:54:44.441Z,12.80
2022-09-16T14:57:23.443Z,12.80
2022-09-16T14:59:57.349Z,12.80
2022-09-16T15:02:48.819Z,12.80
2022-09-16T15:05:28.461Z,12.80
2022-09-16T15:08:14.221Z,12.90
2022-09-16T15:10:53.434Z,12.90
2022-09-16T15:13:25.784Z,12.80
2022-09-16T15:16:02.492Z,12.80
2022-09-16T15:18:35.486Z,12.90
2022-09-16T15:21:11.541Z,13.00
2022-09-16T15:23:41.581Z,12.90
2022-09-16T15:26:15.727Z,12.90
2022-09-16T15:29:03.806Z,12.90
2022-09-16T15:31:34.619Z,12.90
2022-09-16T15:34:05.475Z,12.80
2022-09-16T15:36:34.181Z,12.80
2022-09-16T15:39:01.420Z,12.80
2022-09-16T15:41:28.734Z,12.80
2022-09-16T15:43:57.646Z,12.80
2022-09-16T15:46:25.052Z,12.80
2022-09-16T15:48:56.058Z,12.90
2022-09-16T15:51:34.988Z,12.80
2022-09-16T15:54:24.752Z,12.80
2022-09-16T15:57:02.486Z,12.70
2022-09-16T15:59:42.381Z,12.60
2022-09-16T16:02:30.885Z,12.60
2022-09-16T16:05:14.727Z,12.70
2022-09-16T16:07:54.459Z,12.60
2022-09-16T16:10:24.515Z,12.60
2022-09-16T16:15:37.835Z,12.60
2022-09-16T16:18:07.516Z,12.60
2022-09-16T16:20:36.981Z,12.60
2022-09-16T16:23:04.260Z,12.60
2022-09-16T16:25:31.911Z,12.60
2022-09-16T16:27:59.184Z,12.60
2022-09-16T16:30:26.432Z,12.60
2022-09-16T16:32:53.743Z,12.60
2022-09-16T16:35:20.965Z,12.60
2022-09-16T16:37:48.193Z,12.60
2022-09-16T16:40:16.066Z,12.60
2022-09-16T16:42:44.259Z,12.70
2022-09-16T16:45:13.430Z,12.60
2022-09-16T16:47:41.347Z,12.60
2022-09-16T16:50:09.020Z,12.50
2022-09-16T16:52:36.269Z,12.50
2022-09-16T16:55:04.191Z,12.50
2022-09-16T16:57:31.947Z,12.50
2022-09-16T16:59:59.292Z,12.40
2022-09-16T17:02:26.579Z,12.40
2022-09-16T17:04:53.816Z,12.40
2022-09-16T17:07:26.259Z,12.40
2022-09-16T17:09:57.035Z,12.30
2022-09-16T17:12:24.521Z,12.30
2022-09-16T17:14:51.657Z,12.20
2022-09-16T17:17:19.000Z,12.20
2022-09-16T17:19:46.255Z,12.20
2022-09-16T17:22:13.472Z,12.20
2022-09-16T17:24:40.659Z,12.20
2022-09-16T17:27:07.844Z,12.20
2022-09-16T17:29:35.026Z,12.10
2022-09-16T17:32:03.189Z,12.10
2022-09-16T17:34:31.283Z,12.10
2022-09-16T17:36:58.859Z,12.00
2022-09-16T17:39:26.540Z,12.00
2022-09-16T17:41:56.627Z,12.00
2022-09-16T17:44:24.604Z,12.00
2022-09-16T17:46:51.912Z,12.00
2022-09-16T17:49:23.906Z,11.90
2022-09-16T17:51:52.257Z,11.90
2022-09-16T17:54:19.494Z,11.80
2022-09-16T17:56:47.169Z,11.80
2022-09-16T17:59:17.157Z,11.70
2022-09-16T18:01:44.909Z,11.70
2022-09-16T18:04:12.735Z,11.70
2022-09-16T18:06:42.781Z,11.70
2022-09-16T18:09:10.873Z,11.70
2022-09-16T18:11:40.016Z,11.70
2022-09-16T18:14:10.152Z,11.90
2022-09-16T18:16:37.453Z,11.70
2022-09-16T18:19:05.674Z,11.60
2022-09-16T18:21:33.627Z,11.60
2022-09-16T18:24:03.798Z,11.60
2022-09-16T18:26:33.492Z,11.60
2022-09-16T18:29:10.873Z,11.60
2022-09-16T18:31:41.096Z,11.70
2022-09-16T18:34:08.447Z,11.70
2022-09-16T18:36:37.477Z,11.70
2022-09-16T18:39:05.955Z,11.70
2022-09-16T18:41:38.764Z,11.80
2022-09-16T18:44:11.193Z,11.70
2022-09-16T18:46:38.816Z,11.80
2022-09-16T18:49:06.827Z,11.70
2022-09-16T18:51:37.032Z,11.70
2022-09-16T18:54:07.045Z,11.70
2022-09-16T18:56:36.839Z,11.70
2022-09-16T18:59:23.475Z,11.60
2022-09-16T19:01:56.264Z,11.70
2022-09-16T19:04:26.423Z,11.60
2022-09-16T19:06:59.019Z,11.70
2022-09-16T19:09:26.811Z,11.70
2022-09-16T19:11:54.806Z,11.70
2022-09-16T19:14:24.898Z,11.70
2022-09-16T19:16:52.510Z,11.60
2022-09-16T19:19:20.716Z,11.60
2022-09-16T19:21:48.534Z,11.60
2022-09-16T19:24:21.383Z,11.50
2022-09-16T19:26:50.321Z,11.60
2022-09-16T19:29:18.484Z,11.60
2022-09-16T19:31:47.714Z,11.50
2022-09-16T19:34:16.125Z,11.50
2022-09-16T19:36:44.168Z,11.50
2022-09-16T19:39:12.396Z,11.50
2022-09-16T19:41:41.576Z,11.50
2022-09-16T19:44:12.460Z,11.50
2022-09-16T19:46:42.809Z,11.50
2022-09-16T19:49:15.816Z,11.50
2022-09-16T19:51:43.428Z,11.50
2022-09-16T19:54:10.678Z,11.60
2022-09-16T19:56:37.836Z,11.40
2022-09-16T19:59:05.187Z,11.50
2022-09-16T20:01:34.663Z,11.50
2022-09-16T20:04:03.673Z,11.50
2022-09-16T20:06:34.892Z,11.50
2022-09-16T20:09:04.687Z,11.50
2022-09-16T20:11:35.001Z,11.50
2022-09-16T20:14:05.481Z,11.50
2022-09-16T20:16:35.811Z,11.50
2022-09-16T20:19:05.533Z,11.50
2022-09-16T20:21:34.734Z,11.50
2022-09-16T20:24:05.638Z,11.50
2022-09-16T20:26:34.096Z,11.50
2022-09-16T20:29:01.979Z,11.50
2022-09-16T20:31:33.332Z,11.50
2022-09-16T20:34:00.740Z,11.50
2022-09-16T20:36:32.596Z,11.50
2022-09-16T20:39:00.619Z,11.50
2022-09-16T20:41:30.827Z,11.50
2022-09-16T20:43:59.426Z,11.50
2022-09-16T20:46:31.901Z,11.60
2022-09-16T20:49:01.999Z,11.60
2022-09-16T20:51:31.906Z,11.60
2022-09-16T20:54:07.676Z,11.60
2022-09-16T20:56:38.984Z,11.60
2022-09-16T20:59:12.607Z,11.60
2022-09-16T21:01:41.477Z,11.60
2022-09-16T21:04:14.122Z,11.60
2022-09-16T21:06:43.040Z,11.60
2022-09-16T21:09:13.072Z,11.60
2022-09-16T21:11:43.581Z,11.70
2022-09-16T21:14:12.476Z,11.50
2022-09-16T21:16:40.916Z,11.50
2022-09-16T21:19:10.216Z,11.50
2022-09-16T21:21:44.423Z,11.50
2022-09-16T21:24:13.069Z,11.50
2022-09-16T21:26:41.227Z,11.50
2022-09-16T21:29:11.618Z,11.50
2022-09-16T21:31:41.411Z,11.50
2022-09-16T21:34:20.276Z,11.50
2022-09-16T21:36:48.669Z,11.50
2022-09-16T21:39:17.879Z,11.60
2022-09-16T21:41:46.950Z,11.60
2022-09-16T21:44:15.248Z,11.50
2022-09-16T21:46:45.515Z,11.60
2022-09-16T21:49:29.055Z,11.60
2022-09-16T21:51:58.124Z,11.70
2022-09-16T21:54:25.993Z,11.70
2022-09-16T21:56:53.279Z,11.70
2022-09-16T21:59:20.882Z,11.70
2022-09-16T22:01:50.156Z,12.10
2022-09-16T22:04:20.454Z,11.50
2022-09-16T22:06:50.677Z,11.60
2022-09-16T22:09:18.360Z,11.50
2022-09-16T22:11:46.192Z,11.50
2022-09-16T22:14:13.564Z,11.50
2022-09-16T22:16:41.589Z,11.50
2022-09-16T22:19:11.854Z,11.50
2022-09-16T22:21:42.448Z,11.60
2022-09-16T22:24:10.344Z,11.60
2022-09-16T22:26:38.853Z,11.60
2022-09-16T22:29:08.999Z,11.60
2022-09-16T22:31:38.187Z,11.60
2022-09-16T22:34:06.132Z,11.60
2022-09-16T22:36:35.508Z,11.70
2022-09-16T22:39:07.387Z,11.70
2022-09-16T22:41:35.096Z,11.60
2022-09-16T22:44:02.980Z,11.60
2022-09-16T22:46:33.497Z,11.60
2022-09-16T22:49:01.591Z,11.60
2022-09-16T22:51:29.321Z,11.60
2022-09-16T22:53:56.855Z,11.50
2022-09-16T22:56:29.457Z,11.60
2022-09-16T22:58:58.195Z,11.50
2022-09-16T23:01:37.698Z,11.50
2022-09-16T23:04:07.578Z,11.40
2022-09-16T23:06:37.068Z,11.40
2022-09-16T23:09:05.943Z,11.40
2022-09-16T23:11:34.999Z,11.40
2022-09-16T23:14:04.270Z,11.40
2022-09-16T23:16:36.742Z,11.30
2022-09-16T23:19:07.026Z,11.30
2022-09-16T23:21:34.265Z,11.20
2022-09-16T23:24:03.581Z,11.30
2022-09-16T23:26:33.659Z,11.30
2022-09-16T23:29:02.930Z,11.20
2022-09-16T23:31:33.960Z,11.10
2022-09-16T23:34:07.440Z,11.10
2022-09-16T23:36:37.515Z,11.10
2022-09-16T23:39:06.866Z,11.10
2022-09-16T23:41:35.027Z,11.20
2022-09-16T23:44:02.791Z,11.20
2022-09-16T23:46:31.490Z,11.30
2022-09-16T23:48:59.356Z,11.10
2022-09-16T23:51:28.752Z,11.10
2022-09-16T23:53:57.742Z,11.00
2022-09-16T23:56:25.741Z,11.00
2022-09-16T23:58:53.481Z,11.00
